createdAt,value
2019-05-18T00:00:19.527Z,4.40
2019-05-18T00:05:22.031Z,5.53
2019-05-18T00:10:24.731Z,4.97
2019-05-18T00:15:27.055Z,5.13
2019-05-18T00:20:29.419Z,4.63
2019-05-18T00:25:31.728Z,3.73
2019-05-18T00:30:34.324Z,5.10
2019-05-18T00:35:36.888Z,5.20
2019-05-18T00:40:40.052Z,4.93
2019-05-18T00:45:42.416Z,5.13
2019-05-18T00:50:45.655Z,5.23
2019-05-18T00:55:48.052Z,4.97
2019-05-18T01:00:50.441Z,5.17
2019-05-18T01:05:52.855Z,5.60
2019-05-18T01:10:56.168Z,5.23
2019-05-18T01:15:58.571Z,5.87
2019-05-18T01:21:00.979Z,6.07
2019-05-18T01:26:03.383Z,5.27
2019-05-18T01:31:05.701Z,4.43
2019-05-18T01:36:08.151Z,5.57
2019-05-18T01:41:10.573Z,6.20
2019-05-18T01:46:13.023Z,5.77
2019-05-18T01:51:15.439Z,6.13
2019-05-18T01:56:17.855Z,6.03
2019-05-18T02:01:20.313Z,6.77
2019-05-18T02:06:22.670Z,6.20
2019-05-18T02:11:24.967Z,4.77
2019-05-18T02:16:27.594Z,6.20
2019-05-18T02:21:30.777Z,6.23
2019-05-18T02:26:33.192Z,5.97
2019-05-18T02:31:35.793Z,5.07
2019-05-18T02:36:38.315Z,6.33
2019-05-18T02:41:40.729Z,7.33
2019-05-18T02:46:43.160Z,5.17
2019-05-18T02:51:45.572Z,6.57
2019-05-18T02:56:47.965Z,6.30
2019-05-18T03:01:50.395Z,7.67
2019-05-18T03:06:52.834Z,7.30
2019-05-18T03:11:56.452Z,6.10
2019-05-18T03:16:58.982Z,6.90
2019-05-18T03:22:01.467Z,4.73
2019-05-18T03:27:03.891Z,6.03
2019-05-18T03:32:06.285Z,6.50
2019-05-18T03:37:08.735Z,8.03
2019-05-18T03:42:11.143Z,6.53
2019-05-18T03:47:13.605Z,6.57
2019-05-18T03:52:16.036Z,7.53
2019-05-18T03:57:18.448Z,7.97
2019-05-18T04:02:20.849Z,7.43
2019-05-18T04:07:23.264Z,6.37
2019-05-18T04:12:25.791Z,6.30
2019-05-18T04:17:28.140Z,7.20
2019-05-18T04:22:30.711Z,8.07
2019-05-18T04:27:33.226Z,5.13
2019-05-18T04:32:35.667Z,7.37
2019-05-18T04:37:38.090Z,6.67
2019-05-18T04:42:40.526Z,6.63
2019-05-18T04:47:42.904Z,8.03
2019-05-18T04:52:45.318Z,8.03
2019-05-18T04:57:47.815Z,6.93
2019-05-18T05:02:50.229Z,7.00
2019-05-18T05:07:52.659Z,8.57
2019-05-18T05:12:55.987Z,4.60
2019-05-18T05:17:58.459Z,6.63
2019-05-18T05:23:01.600Z,8.53
2019-05-18T05:28:04.136Z,7.43
2019-05-18T05:33:06.655Z,7.80
2019-05-18T05:38:09.052Z,6.90
2019-05-18T05:43:11.544Z,7.87
2019-05-18T05:48:14.071Z,7.53
2019-05-18T05:53:16.502Z,7.03
2019-05-18T05:58:20.090Z,9.40
2019-05-18T06:03:22.737Z,6.70
2019-05-18T06:08:25.281Z,6.80
2019-05-18T06:13:28.102Z,7.60
2019-05-18T06:18:30.696Z,6.83
2019-05-18T06:23:33.943Z,6.40
2019-05-18T06:28:36.426Z,6.60
2019-05-18T06:33:39.588Z,6.50
2019-05-18T06:38:42.143Z,6.87
2019-05-18T06:49:56.159Z,7.10
2019-05-18T06:54:58.639Z,5.60
2019-05-18T07:00:01.937Z,7.10
2019-05-18T07:05:04.664Z,5.40
2019-05-18T07:10:07.434Z,6.93
2019-05-18T07:15:12.672Z,6.10
2019-05-18T07:20:18.391Z,6.47
2019-05-18T07:25:21.019Z,6.80
2019-05-18T07:30:23.804Z,6.47
2019-05-18T07:35:26.342Z,6.33
2019-05-18T07:40:32.503Z,5.47
2019-05-18T07:45:49.671Z,5.77
2019-05-18T07:50:52.335Z,4.63
2019-05-18T07:55:54.933Z,3.80
2019-05-18T08:00:57.537Z,3.77
2019-05-18T08:05:59.943Z,3.80
2019-05-18T08:11:02.540Z,3.50
2019-05-18T08:16:05.002Z,3.80
2019-05-18T08:21:08.137Z,4.17
2019-05-18T08:26:10.587Z,3.63
2019-05-18T08:31:13.134Z,3.77
2019-05-18T08:36:15.636Z,3.53
2019-05-18T08:41:18.127Z,3.70
2019-05-18T08:46:22.047Z,3.67
2019-05-18T08:52:07.861Z,3.77
2019-05-18T08:57:01.236Z,3.90
2019-05-18T09:02:03.717Z,3.67
2019-05-18T09:07:06.274Z,3.00
2019-05-18T09:12:08.956Z,3.20
2019-05-18T09:17:14.958Z,3.87
2019-05-18T09:22:23.090Z,3.87
2019-05-18T09:27:22.781Z,3.47
2019-05-18T09:32:25.217Z,3.43
2019-05-18T09:37:31.457Z,3.63
2019-05-18T09:42:35.848Z,3.40
2019-05-18T09:47:39.164Z,3.90
2019-05-18T09:52:45.458Z,3.97
2019-05-18T09:57:48.197Z,3.87
2019-05-18T10:02:50.767Z,3.90
2019-05-18T10:07:53.281Z,2.97
2019-05-18T10:12:55.779Z,3.10
2019-05-18T10:17:58.159Z,3.27
2019-05-18T10:23:12.382Z,3.73
2019-05-18T10:28:04.774Z,3.62
2019-05-18T10:33:07.285Z,3.73
2019-05-18T10:38:09.759Z,3.15
2019-05-18T10:43:12.601Z,3.50
2019-05-18T10:48:15.147Z,3.20
2019-05-18T10:53:29.113Z,3.45
2019-05-18T10:58:32.292Z,3.08
2019-05-18T11:03:36.232Z,3.35
2019-05-18T11:08:38.743Z,3.27
2019-05-18T11:13:41.192Z,2.90
2019-05-18T11:29:57.146Z,2.60
2019-05-18T11:34:59.588Z,2.65
2019-05-18T11:40:02.691Z,3.47
2019-05-18T11:45:06.714Z,3.10
2019-05-18T11:50:10.796Z,3.45
2019-05-18T11:55:13.822Z,3.30
2019-05-18T12:00:16.665Z,3.10
2019-05-18T12:05:19.342Z,2.67
2019-05-18T12:10:21.729Z,2.10
2019-05-18T12:15:42.435Z,2.90
2019-05-18T12:20:46.556Z,2.72
2019-05-18T12:25:50.853Z,2.92
2019-05-18T12:30:53.765Z,2.70
2019-05-18T12:47:30.486Z,2.35
2019-05-18T12:52:32.925Z,3.00
2019-05-18T12:57:35.970Z,2.92
2019-05-18T13:02:38.479Z,2.92
2019-05-18T13:07:41.262Z,2.83
2019-05-18T13:12:43.827Z,2.80
2019-05-18T13:17:46.296Z,2.80
2019-05-18T13:22:48.756Z,2.58
2019-05-18T13:27:51.208Z,2.95
2019-05-18T13:32:53.698Z,2.77
2019-05-18T13:37:56.498Z,2.80
2019-05-18T13:42:59.050Z,2.95
2019-05-18T13:48:03.456Z,3.37
2019-05-18T13:53:05.907Z,3.30
2019-05-18T13:58:08.295Z,2.62
2019-05-18T14:03:11.037Z,3.17
2019-05-18T14:08:15.679Z,3.05
2019-05-18T14:13:17.635Z,2.37
2019-05-18T14:18:20.062Z,2.70
2019-05-18T14:23:22.623Z,2.70
2019-05-18T14:28:25.104Z,2.37
2019-05-18T14:33:28.236Z,2.47
2019-05-18T14:38:30.708Z,2.70
2019-05-18T14:43:33.138Z,2.55
2019-05-18T14:48:35.695Z,2.08
2019-05-18T14:53:38.225Z,2.20
2019-05-18T14:58:40.644Z,2.65
2019-05-18T15:03:43.134Z,3.35
2019-05-18T15:08:45.574Z,2.50
2019-05-18T15:13:47.980Z,2.27
2019-05-18T15:18:50.435Z,2.62
2019-05-18T15:23:52.940Z,3.22
2019-05-18T15:28:58.577Z,2.75
2019-05-18T15:34:01.021Z,2.40
2019-05-18T15:39:05.032Z,2.67
2019-05-18T15:44:07.595Z,2.83
2019-05-18T15:49:10.104Z,2.58
2019-05-18T15:54:12.604Z,2.08
2019-05-18T15:59:15.084Z,2.17
2019-05-18T16:04:17.647Z,2.08
2019-05-18T16:09:20.896Z,1.85
2019-05-18T16:14:26.819Z,1.70
2019-05-18T16:19:30.079Z,1.57
2019-05-18T16:24:32.748Z,2.15
2019-05-18T16:29:35.246Z,2.22
2019-05-18T16:34:37.864Z,2.20
2019-05-18T16:39:40.363Z,2.65
2019-05-18T16:44:43.029Z,3.15
2019-05-18T16:49:45.365Z,2.90
2019-05-18T16:54:47.991Z,2.80
2019-05-18T16:59:51.788Z,2.67
2019-05-18T17:04:55.433Z,2.95
2019-05-18T17:09:58.016Z,2.55
2019-05-18T17:15:01.300Z,2.65
2019-05-18T17:20:04.084Z,2.47
2019-05-18T17:25:06.988Z,2.80
2019-05-18T17:30:23.479Z,2.87
2019-05-18T17:35:25.883Z,2.72
2019-05-18T17:40:28.301Z,2.70
2019-05-18T17:45:30.738Z,3.55
2019-05-18T17:50:33.200Z,2.75
2019-05-18T17:55:35.716Z,3.10
2019-05-18T18:00:38.224Z,3.23
2019-05-18T18:05:40.796Z,2.93
2019-05-18T18:10:46.368Z,3.50
2019-05-18T18:15:49.396Z,3.77
2019-05-18T18:20:52.327Z,3.50
2019-05-18T18:25:54.855Z,4.20
2019-05-18T18:30:57.198Z,3.57
2019-05-18T18:35:59.694Z,3.53
2019-05-18T18:41:03.083Z,3.57
2019-05-18T18:46:48.020Z,3.67
2019-05-18T18:57:51.541Z,3.80
2019-05-18T19:03:03.395Z,4.13
2019-05-18T19:08:42.638Z,3.73
2019-05-18T19:13:45.831Z,3.90
2019-05-18T19:18:48.527Z,4.03
2019-05-18T20:26:00.886Z,4.77
2019-05-18T20:31:03.526Z,4.80
2019-05-18T20:36:06.812Z,4.80
2019-05-18T20:41:35.845Z,5.43
2019-05-18T20:46:41.669Z,4.67
2019-05-18T20:51:44.898Z,3.90
2019-05-18T20:56:47.317Z,4.80
2019-05-18T21:01:49.755Z,4.30
2019-05-18T21:06:52.369Z,4.33
2019-05-18T21:11:54.906Z,4.70
2019-05-18T21:16:57.383Z,4.40
2019-05-18T21:21:59.860Z,4.60
2019-05-18T21:27:02.870Z,4.80
2019-05-18T21:32:05.332Z,4.73
2019-05-18T21:37:08.004Z,5.30
2019-05-18T21:42:10.447Z,4.50
2019-05-18T21:47:12.980Z,4.83
2019-05-18T21:52:16.036Z,4.43
2019-05-18T21:57:18.525Z,4.70
2019-05-18T22:02:20.960Z,4.50
2019-05-18T22:07:23.517Z,4.87
2019-05-18T22:12:26.005Z,4.90
2019-05-18T22:17:28.605Z,5.43
2019-05-18T22:22:31.076Z,5.23
2019-05-18T22:27:33.436Z,5.90
2019-05-18T22:32:35.745Z,5.97
2019-05-18T22:37:38.153Z,6.07
2019-05-18T22:42:40.532Z,6.60
2019-05-18T22:47:43.575Z,6.60
2019-05-18T22:52:45.963Z,6.53
2019-05-18T22:57:48.369Z,7.30
2019-05-18T23:02:50.791Z,7.30
2019-05-18T23:07:53.080Z,7.73
2019-05-18T23:12:55.420Z,7.67
2019-05-18T23:17:57.811Z,7.47
2019-05-18T23:23:00.395Z,8.73
2019-05-18T23:28:02.905Z,6.80
2019-05-18T23:33:05.277Z,8.13
2019-05-18T23:38:08.950Z,7.10
2019-05-18T23:43:11.332Z,7.57
2019-05-18T23:48:14.316Z,7.83
2019-05-18T23:53:16.733Z,7.07
2019-05-18T23:58:19.868Z,8.60
